createdAt,value
2023-01-24T00:00:46.783Z,17.38
2023-01-24T00:03:17.176Z,11.13
2023-01-24T00:05:49.586Z,15.10
2023-01-24T00:08:23.952Z,14.20
2023-01-24T00:11:02.476Z,15.90
2023-01-24T00:13:36.216Z,10.50
2023-01-24T00:16:11.071Z,11.93
2023-01-24T00:18:41.226Z,17.92
2023-01-24T00:21:13.693Z,16.77
2023-01-24T00:23:44.209Z,9.13
2023-01-24T00:26:14.616Z,14.75
2023-01-24T00:28:47.567Z,17.30
2023-01-24T00:31:18.183Z,15.07
2023-01-24T00:33:48.429Z,17.88
2023-01-24T00:36:18.971Z,14.35
2023-01-24T00:38:49.054Z,14.23
2023-01-24T00:41:19.069Z,12.60
2023-01-24T00:43:51.740Z,14.55
2023-01-24T00:46:22.015Z,11.77
2023-01-24T00:48:52.173Z,11.98
2023-01-24T00:51:22.464Z,12.40
2023-01-24T00:53:52.626Z,13.55
2023-01-24T00:56:22.854Z,17.48
2023-01-24T00:58:55.579Z,18.38
2023-01-24T01:01:25.618Z,16.70
2023-01-24T01:03:59.381Z,19.63
2023-01-24T01:06:29.800Z,20.63
2023-01-24T01:09:00.086Z,19.05
2023-01-24T01:11:30.262Z,19.00
2023-01-24T01:14:02.989Z,14.57
2023-01-24T01:16:34.215Z,19.48
2023-01-24T01:19:04.485Z,17.60
2023-01-24T01:21:34.737Z,17.95
2023-01-24T01:24:05.229Z,14.63
2023-01-24T01:26:35.439Z,19.42
2023-01-24T01:29:08.362Z,12.52
2023-01-24T01:31:39.898Z,20.38
2023-01-24T01:34:10.030Z,19.20
2023-01-24T01:36:40.063Z,14.30
2023-01-24T01:39:10.356Z,18.42
2023-01-24T01:41:40.747Z,18.52
2023-01-24T01:44:44.293Z,17.42
2023-01-24T01:47:22.639Z,12.13
2023-01-24T01:49:58.592Z,17.40
2023-01-24T01:52:31.460Z,19.88
2023-01-24T01:55:06.152Z,19.60
2023-01-24T01:57:37.489Z,13.90
2023-01-24T02:00:15.440Z,18.65
2023-01-24T02:02:50.024Z,10.23
2023-01-24T02:05:27.974Z,16.33
2023-01-24T02:08:01.654Z,18.95
2023-01-24T02:10:53.387Z,11.98
2023-01-24T02:13:23.452Z,10.23
2023-01-24T02:16:03.953Z,19.33
2023-01-24T02:18:34.961Z,20.67
2023-01-24T02:21:07.798Z,16.17
2023-01-24T02:23:50.538Z,17.20
2023-01-24T02:26:25.663Z,17.00
2023-01-24T02:29:00.272Z,17.77
2023-01-24T02:31:30.698Z,11.77
2023-01-24T02:34:00.735Z,17.50
2023-01-24T02:36:35.960Z,14.63
2023-01-24T02:39:11.580Z,14.38
2023-01-24T02:41:49.402Z,9.45
2023-01-24T02:44:25.209Z,18.95
2023-01-24T02:46:55.293Z,12.95
2023-01-24T02:49:25.339Z,15.10
2023-01-24T02:52:07.782Z,15.73
2023-01-24T02:54:37.815Z,16.30
2023-01-24T02:57:22.943Z,8.95
2023-01-24T02:59:52.976Z,14.57
2023-01-24T03:02:23.026Z,14.73
2023-01-24T03:04:53.103Z,12.27
2023-01-24T03:07:23.125Z,12.50
2023-01-24T03:09:53.209Z,12.70
2023-01-24T03:12:38.290Z,8.68
2023-01-24T03:15:21.826Z,9.90
2023-01-24T03:18:04.567Z,16.30
2023-01-24T03:20:47.176Z,12.82
2023-01-24T03:23:29.840Z,9.27
2023-01-24T03:26:13.291Z,16.50
2023-01-24T03:28:59.014Z,11.05
2023-01-24T03:31:41.601Z,10.98
2023-01-24T03:34:24.284Z,11.15
2023-01-24T03:36:54.288Z,16.08
2023-01-24T03:39:36.943Z,13.30
2023-01-24T03:42:07.331Z,18.33
2023-01-24T03:44:40.030Z,12.30
2023-01-24T03:47:10.058Z,15.98
2023-01-24T03:49:52.590Z,14.45
2023-01-24T03:52:29.646Z,14.35
2023-01-24T03:55:00.283Z,10.45
2023-01-24T03:57:31.657Z,15.63
2023-01-24T04:00:04.487Z,14.65
2023-01-24T04:02:34.550Z,14.95
2023-01-24T04:05:16.971Z,14.95
2023-01-24T04:07:47.102Z,17.75
2023-01-24T04:10:17.780Z,15.35
2023-01-24T04:12:48.303Z,15.55
2023-01-24T04:15:23.479Z,18.02
2023-01-24T04:17:54.053Z,15.32
2023-01-24T04:20:24.146Z,12.32
2023-01-24T04:22:54.167Z,18.05
2023-01-24T04:25:25.015Z,12.18
2023-01-24T04:27:55.133Z,9.35
2023-01-24T04:30:28.053Z,9.45
2023-01-24T04:32:58.220Z,10.70
2023-01-24T04:35:30.764Z,14.95
2023-01-24T04:38:05.185Z,17.05
2023-01-24T04:40:35.592Z,11.70
2023-01-24T04:43:05.613Z,8.68
2023-01-24T04:45:38.273Z,12.75
2023-01-24T04:48:09.179Z,13.38
2023-01-24T04:50:39.647Z,15.38
2023-01-24T04:53:09.671Z,13.35
2023-01-24T04:55:39.837Z,19.45
2023-01-24T04:58:10.095Z,17.02
2023-01-24T05:00:42.854Z,16.23
2023-01-24T05:03:13.143Z,15.05
2023-01-24T05:05:43.731Z,12.40
2023-01-24T05:08:13.760Z,16.35
2023-01-24T05:10:43.925Z,15.77
2023-01-24T05:13:14.454Z,16.88
2023-01-24T05:15:53.391Z,15.88
2023-01-24T05:18:23.611Z,9.98
2023-01-24T05:20:53.680Z,15.82
2023-01-24T05:23:23.936Z,12.23
2023-01-24T05:25:53.959Z,10.38
2023-01-24T05:28:23.952Z,14.23
2023-01-24T05:30:56.635Z,17.90
2023-01-24T05:33:26.714Z,17.70
2023-01-24T05:36:02.047Z,14.93
2023-01-24T05:38:32.311Z,19.20
2023-01-24T05:41:04.111Z,17.05
2023-01-24T05:43:34.373Z,14.00
2023-01-24T05:46:08.848Z,18.00
2023-01-24T05:48:39.210Z,11.73
2023-01-24T05:51:11.281Z,14.18
2023-01-24T05:53:42.890Z,14.07
2023-01-24T05:56:16.732Z,9.20
2023-01-24T05:58:49.011Z,17.27
2023-01-24T06:01:23.518Z,16.98
2023-01-24T06:03:55.375Z,14.68
2023-01-24T06:06:27.296Z,13.93
2023-01-24T06:08:57.407Z,14.18
2023-01-24T06:11:29.601Z,16.08
2023-01-24T06:14:00.162Z,13.32
2023-01-24T06:16:32.877Z,17.60
2023-01-24T06:19:03.349Z,14.18
2023-01-24T06:21:45.735Z,11.68
2023-01-24T06:24:21.806Z,14.02
2023-01-24T06:26:53.515Z,17.77
2023-01-24T06:29:25.085Z,17.15
2023-01-24T06:34:54.605Z,14.95
2023-01-24T06:37:30.237Z,17.83
2023-01-24T06:40:01.138Z,17.05
2023-01-24T06:42:31.863Z,17.00
2023-01-24T06:45:01.895Z,13.75
2023-01-24T06:47:34.583Z,17.85
2023-01-24T06:50:05.999Z,11.57
2023-01-24T06:52:36.223Z,13.05
2023-01-24T06:55:06.596Z,16.85
2023-01-24T06:57:36.917Z,18.00
2023-01-24T07:00:07.980Z,12.43
2023-01-24T07:02:40.725Z,19.77
2023-01-24T07:05:11.468Z,14.05
2023-01-24T07:07:42.454Z,17.75
2023-01-24T07:10:14.324Z,18.45
2023-01-24T07:12:46.554Z,16.27
2023-01-24T07:15:16.772Z,17.88
2023-01-24T07:17:50.271Z,14.85
2023-01-24T07:20:21.411Z,10.00
2023-01-24T07:22:52.322Z,11.82
2023-01-24T07:25:24.675Z,14.43
2023-01-24T07:27:55.512Z,18.27
2023-01-24T07:30:25.570Z,16.90
2023-01-24T07:32:58.224Z,15.15
2023-01-24T07:35:28.427Z,16.17
2023-01-24T07:38:01.236Z,7.90
2023-01-24T07:40:31.487Z,19.90
2023-01-24T07:43:03.617Z,20.33
2023-01-24T07:45:36.055Z,14.48
2023-01-24T07:48:10.341Z,19.40
2023-01-24T07:50:40.353Z,10.70
2023-01-24T07:53:10.550Z,11.93
2023-01-24T07:55:42.280Z,19.10
2023-01-24T07:58:13.803Z,10.85
2023-01-24T08:00:45.129Z,16.52
2023-01-24T08:03:18.655Z,15.98
2023-01-24T08:05:48.768Z,13.23
2023-01-24T08:08:18.818Z,17.45
2023-01-24T08:10:49.323Z,19.48
2023-01-24T08:13:19.554Z,17.38
2023-01-24T08:15:49.825Z,17.40
2023-01-24T08:18:22.492Z,17.13
2023-01-24T08:20:52.633Z,15.20
2023-01-24T08:23:22.953Z,16.27
2023-01-24T08:25:53.070Z,16.25
2023-01-24T08:28:23.368Z,15.80
2023-01-24T08:30:53.398Z,18.83
2023-01-24T08:33:26.057Z,19.60
2023-01-24T08:35:56.076Z,9.43
2023-01-24T08:38:26.439Z,16.85
2023-01-24T08:40:56.487Z,14.88
2023-01-24T08:43:27.149Z,17.52
2023-01-24T08:45:58.383Z,16.45
2023-01-24T08:48:32.091Z,17.05
2023-01-24T08:51:02.189Z,19.30
2023-01-24T08:53:34.610Z,15.32
2023-01-24T08:56:05.666Z,13.98
2023-01-24T08:58:35.943Z,14.30
2023-01-24T09:01:09.945Z,13.88
2023-01-24T09:03:42.927Z,12.52
2023-01-24T09:06:13.115Z,15.05
2023-01-24T09:08:43.165Z,16.55
2023-01-24T09:11:14.086Z,18.98
2023-01-24T09:13:44.659Z,10.85
2023-01-24T09:16:15.199Z,12.65
2023-01-24T09:18:47.863Z,16.80
2023-01-24T09:21:17.955Z,17.52
2023-01-24T09:23:48.335Z,17.75
2023-01-24T09:26:18.694Z,18.13
2023-01-24T09:28:49.202Z,17.63
2023-01-24T09:31:19.550Z,15.45
2023-01-24T09:33:59.421Z,16.65
2023-01-24T09:36:30.747Z,17.15
2023-01-24T09:39:06.147Z,17.02
2023-01-24T09:41:52.607Z,21.88
2023-01-24T09:44:36.068Z,27.85
2023-01-24T09:47:19.965Z,14.23
2023-01-24T09:49:56.066Z,17.85
2023-01-24T09:52:37.597Z,16.40
2023-01-24T09:55:13.381Z,14.95
2023-01-24T09:57:54.201Z,15.73
2023-01-24T10:00:28.996Z,24.80
2023-01-24T10:03:00.866Z,14.55
2023-01-24T10:05:38.642Z,51.97
2023-01-24T10:08:22.589Z,18.20
2023-01-24T10:11:02.905Z,11.63
2023-01-24T10:14:02.793Z,17.80
2023-01-24T10:16:58.308Z,16.40
2023-01-24T10:19:45.503Z,19.00
2023-01-24T10:22:39.291Z,9.75
2023-01-24T10:25:16.627Z,9.40
2023-01-24T10:27:50.139Z,17.55
2023-01-24T10:30:26.357Z,21.88
2023-01-24T10:33:03.370Z,21.17
2023-01-24T10:35:37.926Z,13.55
2023-01-24T10:38:17.977Z,16.45
2023-01-24T10:40:56.074Z,18.67
2023-01-24T10:43:29.282Z,15.73
2023-01-24T10:46:17.502Z,18.20
2023-01-24T10:48:51.467Z,14.13
2023-01-24T10:51:23.300Z,16.77
2023-01-24T10:54:04.244Z,14.43
2023-01-24T10:56:41.724Z,10.50
2023-01-24T10:59:17.047Z,11.27
2023-01-24T11:01:49.796Z,16.52
2023-01-24T11:04:26.610Z,15.70
2023-01-24T11:06:57.133Z,17.10
2023-01-24T11:09:35.637Z,15.18
2023-01-24T11:12:06.067Z,13.75
2023-01-24T11:14:38.568Z,13.85
2023-01-24T11:17:28.749Z,17.77
2023-01-24T11:20:02.539Z,14.25
2023-01-24T11:22:36.070Z,18.42
2023-01-24T11:25:18.532Z,16.45
2023-01-24T11:27:50.283Z,16.95
2023-01-24T11:30:22.553Z,16.48
2023-01-24T11:33:04.916Z,14.48
2023-01-24T11:35:39.587Z,14.98
2023-01-24T11:38:27.092Z,13.68
2023-01-24T11:41:07.298Z,10.85
2023-01-24T11:43:59.622Z,13.52
2023-01-24T11:46:48.649Z,15.32
2023-01-24T11:49:41.036Z,13.95
2023-01-24T11:52:38.564Z,5.50
2023-01-24T11:55:22.119Z,13.50
2023-01-24T11:58:03.165Z,15.07
2023-01-24T12:00:39.151Z,14.52
2023-01-24T12:03:44.690Z,14.25
2023-01-24T12:06:22.448Z,16.05
2023-01-24T12:09:06.023Z,18.60
2023-01-24T12:11:41.023Z,10.07
2023-01-24T12:14:39.051Z,19.08
2023-01-24T12:17:24.942Z,17.38
2023-01-24T12:20:24.755Z,17.95
2023-01-24T12:23:05.358Z,19.67
2023-01-24T12:25:38.008Z,16.10
2023-01-24T12:28:10.134Z,6.70
2023-01-24T12:30:45.137Z,17.52
2023-01-24T12:33:21.545Z,12.35
2023-01-24T12:35:58.074Z,16.60
2023-01-24T12:38:33.864Z,14.68
2023-01-24T12:41:10.271Z,17.50
2023-01-24T12:43:53.696Z,15.05
2023-01-24T12:46:31.494Z,14.02
2023-01-24T12:49:15.774Z,17.92
2023-01-24T12:51:50.708Z,17.10
2023-01-24T12:54:24.291Z,16.05
2023-01-24T12:57:01.993Z,10.63
2023-01-24T12:59:34.888Z,11.13
2023-01-24T13:02:41.131Z,14.50
2023-01-24T13:05:27.667Z,17.73
2023-01-24T13:08:11.495Z,13.73
2023-01-24T13:10:54.601Z,13.07
2023-01-24T13:13:30.515Z,11.13
2023-01-24T13:16:14.303Z,19.30
2023-01-24T13:19:02.693Z,19.92
2023-01-24T13:21:41.804Z,19.75
2023-01-24T13:24:39.628Z,23.58
2023-01-24T13:27:23.852Z,24.20
2023-01-24T13:30:17.825Z,21.55
2023-01-24T13:32:49.480Z,24.33
2023-01-24T13:35:25.188Z,22.23
2023-01-24T13:37:57.536Z,24.38
2023-01-24T13:40:31.837Z,20.10
2023-01-24T13:43:02.214Z,12.50
2023-01-24T13:45:51.868Z,22.80
2023-01-24T13:48:50.442Z,22.30
2023-01-24T13:51:36.493Z,25.17
2023-01-24T13:54:08.595Z,22.58
2023-01-24T13:57:14.772Z,20.10
2023-01-24T13:59:46.436Z,19.80
2023-01-24T14:02:33.067Z,12.38
2023-01-24T14:05:03.366Z,21.35
2023-01-24T14:07:43.062Z,18.42
2023-01-24T14:10:13.535Z,21.75
2023-01-24T14:12:56.973Z,14.95
2023-01-24T14:15:30.945Z,17.85
2023-01-24T14:18:01.492Z,19.88
2023-01-24T14:20:42.377Z,22.48
2023-01-24T14:23:25.055Z,21.23
2023-01-24T14:25:58.210Z,21.92
2023-01-24T14:28:41.021Z,20.52
2023-01-24T14:31:22.959Z,18.63
2023-01-24T14:33:58.026Z,15.70
2023-01-24T14:36:32.738Z,18.13
2023-01-24T14:39:23.880Z,20.63
2023-01-24T14:41:56.571Z,20.83
2023-01-24T14:44:29.246Z,16.08
2023-01-24T14:47:01.700Z,20.10
2023-01-24T14:49:35.052Z,17.73
2023-01-24T14:52:21.377Z,16.92
2023-01-24T14:54:56.653Z,15.30
2023-01-24T14:57:28.902Z,17.80
2023-01-24T15:00:11.210Z,11.75
2023-01-24T15:02:43.294Z,15.85
2023-01-24T15:05:27.448Z,18.85
2023-01-24T15:07:57.824Z,21.33
2023-01-24T15:10:32.812Z,24.90
2023-01-24T15:13:05.179Z,14.27
2023-01-24T15:15:36.424Z,23.38
2023-01-24T15:18:09.004Z,19.50
2023-01-24T15:20:39.152Z,22.77
2023-01-24T15:23:17.992Z,22.00
2023-01-24T15:25:50.791Z,18.63
2023-01-24T15:28:26.828Z,22.30
2023-01-24T15:30:59.003Z,17.75
2023-01-24T15:33:45.551Z,24.70
2023-01-24T15:36:26.873Z,22.63
2023-01-24T15:38:59.197Z,14.18
2023-01-24T15:41:52.996Z,18.70
2023-01-24T15:44:21.026Z,20.38
2023-01-24T15:47:10.883Z,16.05
2023-01-24T15:49:42.375Z,19.63
2023-01-24T15:52:25.507Z,19.17
2023-01-24T15:55:01.003Z,24.30
2023-01-24T15:57:36.153Z,23.52
2023-01-24T16:00:25.317Z,22.25
2023-01-24T16:02:56.503Z,31.67
2023-01-24T16:05:30.215Z,16.35
2023-01-24T16:08:00.402Z,17.52
2023-01-24T16:10:30.637Z,26.75
2023-01-24T16:13:03.480Z,24.55
2023-01-24T16:15:33.607Z,20.70
2023-01-24T16:18:04.040Z,18.63
2023-01-24T16:20:34.344Z,16.63
2023-01-24T16:23:04.708Z,26.80
2023-01-24T16:25:34.942Z,24.83
2023-01-24T16:28:08.266Z,28.27
2023-01-24T16:30:38.413Z,27.25
2023-01-24T16:33:08.655Z,26.42
2023-01-24T16:35:38.729Z,26.67
2023-01-24T16:38:08.867Z,31.08
2023-01-24T16:40:38.952Z,27.10
2023-01-24T16:43:17.303Z,29.25
2023-01-24T16:45:49.895Z,27.30
2023-01-24T16:48:20.830Z,21.80
2023-01-24T16:50:51.069Z,13.50
2023-01-24T16:53:21.335Z,23.88
2023-01-24T16:55:59.284Z,22.50
2023-01-24T16:58:31.964Z,25.20
2023-01-24T17:01:02.196Z,24.42
2023-01-24T17:03:32.237Z,19.83
2023-01-24T17:06:02.382Z,23.58
2023-01-24T17:08:32.479Z,10.68
2023-01-24T17:11:07.027Z,20.13
2023-01-24T17:13:40.356Z,14.68
2023-01-24T17:16:13.477Z,24.20
2023-01-24T17:18:43.628Z,24.90
2023-01-24T17:21:16.559Z,19.00
2023-01-24T17:23:47.111Z,25.23
2023-01-24T17:26:19.488Z,24.83
2023-01-24T17:28:52.222Z,26.83
2023-01-24T17:31:23.538Z,21.35
2023-01-24T17:33:53.943Z,22.77
2023-01-24T17:36:24.172Z,24.80
2023-01-24T17:38:56.459Z,21.27
2023-01-24T17:41:26.777Z,15.80
2023-01-24T17:43:59.425Z,18.67
2023-01-24T17:46:29.677Z,19.23
2023-01-24T17:48:59.963Z,18.13
2023-01-24T17:51:30.057Z,20.33
2023-01-24T17:54:00.843Z,21.77
2023-01-24T17:56:31.135Z,23.52
2023-01-24T17:59:04.085Z,21.95
2023-01-24T18:01:34.393Z,19.15
2023-01-24T18:04:05.034Z,23.48
2023-01-24T18:06:35.322Z,25.52
2023-01-24T18:09:05.535Z,27.63
2023-01-24T18:11:36.482Z,25.88
2023-01-24T18:14:09.205Z,24.65
2023-01-24T18:16:39.340Z,29.95
2023-01-24T18:19:09.428Z,22.80
2023-01-24T18:21:39.760Z,23.23
2023-01-24T18:24:10.203Z,20.65
2023-01-24T18:26:40.692Z,25.30
2023-01-24T18:29:13.457Z,20.90
2023-01-24T18:31:45.936Z,25.92
2023-01-24T18:34:17.373Z,16.90
2023-01-24T18:36:47.507Z,23.42
2023-01-24T18:39:17.609Z,25.98
2023-01-24T18:41:47.946Z,29.88
2023-01-24T18:44:20.812Z,25.63
2023-01-24T18:46:51.163Z,20.58
2023-01-24T18:49:21.488Z,17.88
2023-01-24T18:51:51.623Z,25.13
2023-01-24T18:54:21.860Z,27.00
2023-01-24T18:56:52.306Z,26.98
2023-01-24T18:59:25.039Z,29.02
2023-01-24T19:01:55.712Z,26.17
2023-01-24T19:04:25.983Z,27.63
2023-01-24T19:06:56.083Z,30.10
2023-01-24T19:09:26.263Z,30.67
2023-01-24T19:11:56.477Z,28.90
2023-01-24T19:14:29.612Z,28.77
2023-01-24T19:16:59.943Z,31.80
2023-01-24T19:19:30.010Z,32.17
2023-01-24T19:22:00.556Z,31.65
2023-01-24T19:24:31.967Z,32.08
2023-01-24T19:27:02.047Z,34.90
2023-01-24T19:29:34.744Z,34.10
2023-01-24T19:32:04.915Z,29.30
2023-01-24T19:34:34.967Z,32.55
2023-01-24T19:37:06.368Z,34.25
2023-01-24T19:39:36.492Z,35.03
2023-01-24T19:42:06.945Z,35.20
2023-01-24T19:44:39.585Z,33.05
2023-01-24T19:47:10.394Z,33.92
2023-01-24T19:49:40.428Z,45.45
2023-01-24T19:52:10.545Z,37.75
2023-01-24T19:54:40.609Z,40.45
2023-01-24T19:57:10.682Z,41.53
2023-01-24T19:59:43.366Z,35.90
2023-01-24T20:02:13.945Z,38.90
2023-01-24T20:04:51.933Z,34.97
2023-01-24T20:07:23.593Z,33.08
2023-01-24T20:09:53.644Z,37.83
2023-01-24T20:12:24.068Z,39.70
2023-01-24T20:14:56.805Z,35.45
2023-01-24T20:17:27.075Z,35.47
2023-01-24T20:20:00.751Z,37.22
2023-01-24T20:22:31.412Z,38.15
2023-01-24T20:25:13.823Z,36.42
2023-01-24T20:27:47.918Z,36.33
2023-01-24T20:30:21.490Z,40.00
2023-01-24T20:32:51.836Z,36.00
2023-01-24T20:35:22.001Z,37.08
2023-01-24T20:37:52.591Z,34.33
2023-01-24T20:40:22.744Z,35.13
2023-01-24T20:42:53.216Z,39.15
2023-01-24T20:45:26.002Z,35.70
2023-01-24T20:47:56.094Z,33.72
2023-01-24T20:50:26.273Z,32.22
2023-01-24T20:52:56.547Z,35.25
2023-01-24T20:55:26.704Z,37.00
2023-01-24T20:57:56.980Z,37.80
2023-01-24T21:00:29.733Z,36.60
2023-01-24T21:03:00.322Z,36.53
2023-01-24T21:05:35.237Z,34.03
2023-01-24T21:08:05.351Z,35.20
2023-01-24T21:10:35.413Z,32.53
2023-01-24T21:13:05.784Z,40.00
2023-01-24T21:15:38.599Z,35.15
2023-01-24T21:18:19.218Z,39.13
2023-01-24T21:20:49.873Z,37.47
2023-01-24T21:23:21.120Z,39.58
2023-01-24T21:25:51.174Z,35.53
2023-01-24T21:28:21.383Z,41.00
2023-01-24T21:31:02.074Z,38.95
2023-01-24T21:33:32.705Z,33.05
2023-01-24T21:36:03.560Z,20.20
2023-01-24T21:38:35.150Z,40.03
2023-01-24T21:43:48.721Z,34.40
2023-01-24T21:46:21.670Z,39.55
2023-01-24T21:49:04.100Z,42.42
2023-01-24T21:51:35.248Z,41.15
2023-01-24T21:54:06.655Z,42.10
2023-01-24T21:56:51.582Z,45.00
2023-01-24T21:59:22.235Z,44.75
2023-01-24T22:01:56.461Z,42.80
2023-01-24T22:04:27.603Z,41.45
2023-01-24T22:06:59.275Z,44.47
2023-01-24T22:09:29.712Z,45.03
2023-01-24T22:11:59.873Z,38.67
2023-01-24T22:14:32.038Z,41.25
2023-01-24T22:17:06.755Z,41.67
2023-01-24T22:19:43.697Z,44.72
2023-01-24T22:22:43.608Z,41.85
2023-01-24T22:25:33.506Z,49.00
2023-01-24T22:28:05.085Z,40.50
2023-01-24T22:30:35.535Z,42.42
2023-01-24T22:33:09.236Z,43.72
2023-01-24T22:35:40.608Z,44.47
2023-01-24T22:38:11.011Z,43.92
2023-01-24T22:40:41.050Z,41.72
2023-01-24T22:43:12.261Z,47.80
2023-01-24T22:45:42.304Z,45.67
2023-01-24T22:48:19.079Z,42.15
2023-01-24T22:50:49.756Z,45.10
2023-01-24T22:53:19.779Z,46.83
2023-01-24T22:55:52.171Z,44.70
2023-01-24T22:58:22.182Z,47.45
2023-01-24T23:00:52.272Z,46.92
2023-01-24T23:03:24.978Z,48.50
2023-01-24T23:05:55.034Z,51.78
2023-01-24T23:08:25.027Z,47.63
2023-01-24T23:10:55.089Z,46.67
2023-01-24T23:13:37.493Z,42.95
2023-01-24T23:16:13.679Z,47.03
2023-01-24T23:19:00.675Z,50.67
2023-01-24T23:21:33.186Z,46.00
2023-01-24T23:24:03.608Z,45.50
2023-01-24T23:26:34.282Z,47.75
2023-01-24T23:29:23.953Z,39.90
2023-01-24T23:31:56.794Z,43.28
2023-01-24T23:34:40.306Z,46.13
2023-01-24T23:37:11.273Z,45.83
2023-01-24T23:39:41.287Z,53.20
2023-01-24T23:42:11.474Z,44.17
2023-01-24T23:44:41.599Z,46.53
2023-01-24T23:47:11.807Z,46.22
2023-01-24T23:49:45.004Z,53.70
2023-01-24T23:52:15.359Z,51.22
2023-01-24T23:54:45.436Z,43.85
2023-01-24T23:57:15.944Z,45.83
2023-01-24T23:59:45.964Z,47.38
